sensor_id;sensor_type;location;lat;lon;timestamp;P1;durP1;ratioP1;P2;durP2;ratioP2
23088;SDS011;11713;48.506;8.966;2023-11-22T00:01:12;15.53;;;7.03;;
23088;SDS011;11713;48.506;8.966;2023-11-22T00:03:38;10.77;;;6.53;;
23088;SDS011;11713;48.506;8.966;2023-11-22T00:06:04;10.97;;;6.37;;
23088;SDS011;11713;48.506;8.966;2023-11-22T00:08:32;9.70;;;6.13;;
23088;SDS011;11713;48.506;8.966;2023-11-22T00:10:58;10.10;;;6.30;;
23088;SDS011;11713;48.506;8.966;2023-11-22T00:13:24;8.80;;;6.60;;
23088;SDS011;11713;48.506;8.966;2023-11-22T00:15:51;11.57;;;6.77;;
23088;SDS011;11713;48.506;8.966;2023-11-22T00:18:16;12.37;;;6.83;;
23088;SDS011;11713;48.506;8.966;2023-11-22T00:20:42;8.10;;;6.20;;
23088;SDS011;11713;48.506;8.966;2023-11-22T00:23:08;9.73;;;6.60;;
23088;SDS011;11713;48.506;8.966;2023-11-22T00:25:34;11.77;;;6.60;;
23088;SDS011;11713;48.506;8.966;2023-11-22T00:28:00;9.33;;;6.30;;
23088;SDS011;11713;48.506;8.966;2023-11-22T00:30:26;9.80;;;6.80;;
23088;SDS011;11713;48.506;8.966;2023-11-22T00:32:53;8.73;;;7.20;;
23088;SDS011;11713;48.506;8.966;2023-11-22T00:35:18;11.07;;;7.17;;
23088;SDS011;11713;48.506;8.966;2023-11-22T00:37:44;9.30;;;6.33;;
23088;SDS011;11713;48.506;8.966;2023-11-22T00:40:11;10.33;;;6.63;;
23088;SDS011;11713;48.506;8.966;2023-11-22T00:42:38;10.13;;;6.63;;
23088;SDS011;11713;48.506;8.966;2023-11-22T00:45:05;10.83;;;6.80;;
23088;SDS011;11713;48.506;8.966;2023-11-22T00:47:32;10.70;;;6.80;;
23088;SDS011;11713;48.506;8.966;2023-11-22T00:49:58;8.10;;;5.93;;
23088;SDS011;11713;48.506;8.966;2023-11-22T00:52:25;10.37;;;6.23;;
23088;SDS011;11713;48.506;8.966;2023-11-22T00:54:51;9.53;;;6.70;;
23088;SDS011;11713;48.506;8.966;2023-11-22T00:57:18;14.57;;;7.47;;
23088;SDS011;11713;48.506;8.966;2023-11-22T00:59:44;10.03;;;6.60;;
23088;SDS011;11713;48.506;8.966;2023-11-22T01:02:11;11.13;;;6.50;;
23088;SDS011;11713;48.506;8.966;2023-11-22T01:04:36;11.50;;;6.60;;
23088;SDS011;11713;48.506;8.966;2023-11-22T01:07:03;9.60;;;6.60;;
23088;SDS011;11713;48.506;8.966;2023-11-22T01:09:31;9.37;;;6.67;;
23088;SDS011;11713;48.506;8.966;2023-11-22T01:11:57;9.57;;;6.43;;
23088;SDS011;11713;48.506;8.966;2023-11-22T01:14:23;9.63;;;6.33;;
23088;SDS011;11713;48.506;8.966;2023-11-22T01:16:49;10.57;;;6.57;;
23088;SDS011;11713;48.506;8.966;2023-11-22T01:19:15;9.73;;;6.13;;
23088;SDS011;11713;48.506;8.966;2023-11-22T01:21:41;6.27;;;3.80;;
23088;SDS011;11713;48.506;8.966;2023-11-22T01:24:07;4.90;;;3.10;;
23088;SDS011;11713;48.506;8.966;2023-11-22T01:26:33;2.70;;;2.30;;
23088;SDS011;11713;48.506;8.966;2023-11-22T01:28:59;2.67;;;2.30;;
23088;SDS011;11713;48.506;8.966;2023-11-22T01:31:25;2.10;;;1.77;;
23088;SDS011;11713;48.506;8.966;2023-11-22T01:33:52;2.77;;;1.90;;
23088;SDS011;11713;48.506;8.966;2023-11-22T01:36:19;3.47;;;2.20;;
23088;SDS011;11713;48.506;8.966;2023-11-22T01:38:45;2.77;;;2.40;;
23088;SDS011;11713;48.506;8.966;2023-11-22T01:41:12;2.70;;;2.50;;
23088;SDS011;11713;48.506;8.966;2023-11-22T01:43:39;3.20;;;2.70;;
23088;SDS011;11713;48.506;8.966;2023-11-22T01:46:10;4.10;;;3.03;;
23088;SDS011;11713;48.506;8.966;2023-11-22T01:48:48;3.77;;;3.17;;
23088;SDS011;11713;48.506;8.966;2023-11-22T01:51:14;3.37;;;2.97;;
23088;SDS011;11713;48.506;8.966;2023-11-22T01:53:40;3.20;;;2.77;;
23088;SDS011;11713;48.506;8.966;2023-11-22T01:56:07;4.43;;;2.87;;
23088;SDS011;11713;48.506;8.966;2023-11-22T01:58:34;4.70;;;2.83;;
23088;SDS011;11713;48.506;8.966;2023-11-22T02:01:00;3.40;;;2.83;;
23088;SDS011;11713;48.506;8.966;2023-11-22T02:03:27;4.00;;;2.80;;
23088;SDS011;11713;48.506;8.966;2023-11-22T02:05:56;5.20;;;3.33;;
23088;SDS011;11713;48.506;8.966;2023-11-22T02:08:21;4.23;;;3.30;;
23088;SDS011;11713;48.506;8.966;2023-11-22T02:10:56;5.50;;;4.23;;
23088;SDS011;11713;48.506;8.966;2023-11-22T02:13:29;5.40;;;4.00;;
23088;SDS011;11713;48.506;8.966;2023-11-22T02:15:55;5.00;;;4.10;;
23088;SDS011;11713;48.506;8.966;2023-11-22T02:18:22;4.70;;;4.07;;
23088;SDS011;11713;48.506;8.966;2023-11-22T02:20:48;5.13;;;4.33;;
23088;SDS011;11713;48.506;8.966;2023-11-22T02:23:16;4.97;;;4.43;;
23088;SDS011;11713;48.506;8.966;2023-11-22T02:25:43;4.83;;;4.17;;
23088;SDS011;11713;48.506;8.966;2023-11-22T02:28:11;6.57;;;4.60;;
23088;SDS011;11713;48.506;8.966;2023-11-22T02:30:37;5.63;;;4.57;;
23088;SDS011;11713;48.506;8.966;2023-11-22T02:33:04;5.43;;;4.50;;
23088;SDS011;11713;48.506;8.966;2023-11-22T02:35:32;5.60;;;4.33;;
23088;SDS011;11713;48.506;8.966;2023-11-22T02:37:58;5.77;;;4.30;;
23088;SDS011;11713;48.506;8.966;2023-11-22T02:40:25;5.97;;;5.10;;
23088;SDS011;11713;48.506;8.966;2023-11-22T02:42:52;5.13;;;4.30;;
23088;SDS011;11713;48.506;8.966;2023-11-22T02:45:20;6.13;;;4.83;;
23088;SDS011;11713;48.506;8.966;2023-11-22T02:47:49;7.37;;;5.77;;
23088;SDS011;11713;48.506;8.966;2023-11-22T02:50:16;7.90;;;5.33;;
23088;SDS011;11713;48.506;8.966;2023-11-22T02:52:42;6.03;;;4.80;;
23088;SDS011;11713;48.506;8.966;2023-11-22T02:55:08;6.90;;;5.10;;
23088;SDS011;11713;48.506;8.966;2023-11-22T02:57:35;6.77;;;5.03;;
23088;SDS011;11713;48.506;8.966;2023-11-22T03:00:02;5.17;;;4.33;;
23088;SDS011;11713;48.506;8.966;2023-11-22T03:02:29;5.30;;;4.10;;
23088;SDS011;11713;48.506;8.966;2023-11-22T03:04:57;5.63;;;4.57;;
23088;SDS011;11713;48.506;8.966;2023-11-22T03:07:23;5.60;;;4.57;;
23088;SDS011;11713;48.506;8.966;2023-11-22T03:09:53;5.47;;;4.43;;
23088;SDS011;11713;48.506;8.966;2023-11-22T03:12:19;6.73;;;4.30;;
23088;SDS011;11713;48.506;8.966;2023-11-22T03:14:48;4.93;;;4.23;;
23088;SDS011;11713;48.506;8.966;2023-11-22T03:17:15;6.10;;;4.70;;
23088;SDS011;11713;48.506;8.966;2023-11-22T03:19:44;5.73;;;4.50;;
23088;SDS011;11713;48.506;8.966;2023-11-22T03:22:11;5.57;;;4.60;;
23088;SDS011;11713;48.506;8.966;2023-11-22T03:24:37;6.27;;;4.30;;
23088;SDS011;11713;48.506;8.966;2023-11-22T03:27:03;5.67;;;4.50;;
23088;SDS011;11713;48.506;8.966;2023-11-22T03:29:31;6.13;;;4.80;;
23088;SDS011;11713;48.506;8.966;2023-11-22T03:31:57;7.00;;;4.77;;
23088;SDS011;11713;48.506;8.966;2023-11-22T03:34:23;9.50;;;4.40;;
23088;SDS011;11713;48.506;8.966;2023-11-22T03:36:49;5.10;;;4.33;;
23088;SDS011;11713;48.506;8.966;2023-11-22T03:39:15;5.60;;;4.30;;
23088;SDS011;11713;48.506;8.966;2023-11-22T03:41:42;5.60;;;4.37;;
23088;SDS011;11713;48.506;8.966;2023-11-22T03:44:07;7.43;;;4.77;;
23088;SDS011;11713;48.506;8.966;2023-11-22T03:46:34;6.63;;;4.60;;
23088;SDS011;11713;48.506;8.966;2023-11-22T03:49:02;5.90;;;4.50;;
23088;SDS011;11713;48.506;8.966;2023-11-22T03:51:39;5.73;;;4.33;;
23088;SDS011;11713;48.506;8.966;2023-11-22T03:54:06;5.63;;;4.43;;
23088;SDS011;11713;48.506;8.966;2023-11-22T03:56:32;7.17;;;4.80;;
23088;SDS011;11713;48.506;8.966;2023-11-22T03:58:58;5.20;;;4.30;;
23088;SDS011;11713;48.506;8.966;2023-11-22T04:01:24;8.13;;;4.40;;
23088;SDS011;11713;48.506;8.966;2023-11-22T04:03:50;6.23;;;4.33;;
23088;SDS011;11713;48.506;8.966;2023-11-22T04:06:17;5.40;;;4.37;;
23088;SDS011;11713;48.506;8.966;2023-11-22T04:08:44;6.60;;;4.30;;
23088;SDS011;11713;48.506;8.966;2023-11-22T04:11:11;6.90;;;4.80;;
23088;SDS011;11713;48.506;8.966;2023-11-22T04:13:38;5.30;;;4.10;;
23088;SDS011;11713;48.506;8.966;2023-11-22T04:16:04;6.53;;;4.50;;
23088;SDS011;11713;48.506;8.966;2023-11-22T04:18:39;5.00;;;4.30;;
23088;SDS011;11713;48.506;8.966;2023-11-22T04:21:06;6.10;;;4.83;;
23088;SDS011;11713;48.506;8.966;2023-11-22T04:23:33;6.27;;;4.80;;
23088;SDS011;11713;48.506;8.966;2023-11-22T04:25:59;5.57;;;4.63;;
23088;SDS011;11713;48.506;8.966;2023-11-22T04:28:26;6.57;;;4.60;;
23088;SDS011;11713;48.506;8.966;2023-11-22T04:30:53;5.30;;;4.10;;
23088;SDS011;11713;48.506;8.966;2023-11-22T04:33:19;6.80;;;4.93;;
23088;SDS011;11713;48.506;8.966;2023-11-22T04:35:51;4.80;;;4.10;;
23088;SDS011;11713;48.506;8.966;2023-11-22T04:38:17;6.73;;;4.53;;
23088;SDS011;11713;48.506;8.966;2023-11-22T04:40:43;5.97;;;4.83;;
23088;SDS011;11713;48.506;8.966;2023-11-22T04:43:09;5.03;;;4.30;;
23088;SDS011;11713;48.506;8.966;2023-11-22T04:45:35;6.07;;;4.63;;
23088;SDS011;11713;48.506;8.966;2023-11-22T04:48:01;5.30;;;4.30;;
23088;SDS011;11713;48.506;8.966;2023-11-22T04:50:28;6.40;;;4.50;;
23088;SDS011;11713;48.506;8.966;2023-11-22T04:52:54;5.60;;;4.50;;
23088;SDS011;11713;48.506;8.966;2023-11-22T04:55:20;5.30;;;4.57;;
23088;SDS011;11713;48.506;8.966;2023-11-22T04:57:48;6.10;;;4.87;;
23088;SDS011;11713;48.506;8.966;2023-11-22T05:00:14;10.40;;;4.87;;
23088;SDS011;11713;48.506;8.966;2023-11-22T05:02:40;6.30;;;5.13;;
23088;SDS011;11713;48.506;8.966;2023-11-22T05:05:07;7.50;;;5.40;;
23088;SDS011;11713;48.506;8.966;2023-11-22T05:07:35;6.80;;;5.13;;
23088;SDS011;11713;48.506;8.966;2023-11-22T05:10:01;6.93;;;5.20;;
23088;SDS011;11713;48.506;8.966;2023-11-22T05:12:28;8.33;;;4.70;;
23088;SDS011;11713;48.506;8.966;2023-11-22T05:14:54;8.47;;;5.57;;
23088;SDS011;11713;48.506;8.966;2023-11-22T05:17:20;5.87;;;5.00;;
23088;SDS011;11713;48.506;8.966;2023-11-22T05:19:45;6.77;;;4.97;;
23088;SDS011;11713;48.506;8.966;2023-11-22T05:22:11;6.23;;;4.83;;
23088;SDS011;11713;48.506;8.966;2023-11-22T05:24:37;6.60;;;5.07;;
23088;SDS011;11713;48.506;8.966;2023-11-22T05:27:06;6.20;;;4.73;;
23088;SDS011;11713;48.506;8.966;2023-11-22T05:29:33;6.33;;;4.63;;
23088;SDS011;11713;48.506;8.966;2023-11-22T05:31:59;6.70;;;4.97;;
23088;SDS011;11713;48.506;8.966;2023-11-22T05:34:27;8.03;;;5.63;;
23088;SDS011;11713;48.506;8.966;2023-11-22T05:36:54;7.10;;;5.07;;
23088;SDS011;11713;48.506;8.966;2023-11-22T05:39:20;6.27;;;5.00;;
23088;SDS011;11713;48.506;8.966;2023-11-22T05:41:47;6.80;;;5.00;;
23088;SDS011;11713;48.506;8.966;2023-11-22T05:44:14;7.03;;;5.23;;
23088;SDS011;11713;48.506;8.966;2023-11-22T05:46:40;8.17;;;5.17;;
23088;SDS011;11713;48.506;8.966;2023-11-22T05:49:06;7.47;;;5.33;;
23088;SDS011;11713;48.506;8.966;2023-11-22T05:51:32;6.20;;;4.77;;
23088;SDS011;11713;48.506;8.966;2023-11-22T05:54:02;8.43;;;5.20;;
23088;SDS011;11713;48.506;8.966;2023-11-22T05:56:28;7.03;;;5.13;;
23088;SDS011;11713;48.506;8.966;2023-11-22T05:58:54;6.83;;;5.00;;
23088;SDS011;11713;48.506;8.966;2023-11-22T06:01:20;8.50;;;5.77;;
23088;SDS011;11713;48.506;8.966;2023-11-22T06:03:46;6.67;;;5.47;;
23088;SDS011;11713;48.506;8.966;2023-11-22T06:06:13;6.47;;;5.10;;
23088;SDS011;11713;48.506;8.966;2023-11-22T06:08:39;5.57;;;4.40;;
23088;SDS011;11713;48.506;8.966;2023-11-22T06:11:05;5.37;;;4.47;;
23088;SDS011;11713;48.506;8.966;2023-11-22T06:13:32;6.50;;;4.00;;
23088;SDS011;11713;48.506;8.966;2023-11-22T06:15:58;6.80;;;5.93;;
23088;SDS011;11713;48.506;8.966;2023-11-22T06:18:24;5.47;;;3.80;;
23088;SDS011;11713;48.506;8.966;2023-11-22T06:20:55;7.07;;;3.70;;
23088;SDS011;11713;48.506;8.966;2023-11-22T06:23:22;5.10;;;3.90;;
23088;SDS011;11713;48.506;8.966;2023-11-22T06:25:48;4.57;;;3.47;;
23088;SDS011;11713;48.506;8.966;2023-11-22T06:28:13;5.80;;;3.63;;
23088;SDS011;11713;48.506;8.966;2023-11-22T06:30:39;4.43;;;3.80;;
23088;SDS011;11713;48.506;8.966;2023-11-22T06:33:05;4.50;;;3.00;;
23088;SDS011;11713;48.506;8.966;2023-11-22T06:35:32;3.93;;;3.40;;
23088;SDS011;11713;48.506;8.966;2023-11-22T06:37:58;3.57;;;2.93;;
23088;SDS011;11713;48.506;8.966;2023-11-22T06:40:24;4.47;;;3.50;;
23088;SDS011;11713;48.506;8.966;2023-11-22T06:42:50;4.93;;;3.87;;
23088;SDS011;11713;48.506;8.966;2023-11-22T06:45:16;5.23;;;3.80;;
23088;SDS011;11713;48.506;8.966;2023-11-22T06:47:42;4.20;;;3.80;;
23088;SDS011;11713;48.506;8.966;2023-11-22T06:50:09;6.23;;;3.90;;
23088;SDS011;11713;48.506;8.966;2023-11-22T06:52:37;6.67;;;3.70;;
23088;SDS011;11713;48.506;8.966;2023-11-22T06:55:05;4.20;;;3.63;;
23088;SDS011;11713;48.506;8.966;2023-11-22T06:57:35;5.00;;;3.57;;
23088;SDS011;11713;48.506;8.966;2023-11-22T07:00:04;8.67;;;3.97;;
23088;SDS011;11713;48.506;8.966;2023-11-22T07:02:32;5.80;;;4.20;;
23088;SDS011;11713;48.506;8.966;2023-11-22T07:04:58;4.60;;;3.80;;
23088;SDS011;11713;48.506;8.966;2023-11-22T07:07:25;5.53;;;4.30;;
23088;SDS011;11713;48.506;8.966;2023-11-22T07:09:50;5.53;;;3.90;;
23088;SDS011;11713;48.506;8.966;2023-11-22T07:12:16;6.77;;;4.33;;
23088;SDS011;11713;48.506;8.966;2023-11-22T07:14:44;4.93;;;3.67;;
23088;SDS011;11713;48.506;8.966;2023-11-22T07:17:11;4.93;;;4.27;;
23088;SDS011;11713;48.506;8.966;2023-11-22T07:19:39;6.07;;;4.60;;
23088;SDS011;11713;48.506;8.966;2023-11-22T07:22:15;6.23;;;4.40;;
23088;SDS011;11713;48.506;8.966;2023-11-22T07:24:42;4.90;;;4.13;;
23088;SDS011;11713;48.506;8.966;2023-11-22T07:27:12;6.50;;;4.50;;
23088;SDS011;11713;48.506;8.966;2023-11-22T07:29:42;6.40;;;4.50;;
23088;SDS011;11713;48.506;8.966;2023-11-22T07:32:08;5.43;;;4.23;;
23088;SDS011;11713;48.506;8.966;2023-11-22T07:34:35;4.93;;;3.70;;
23088;SDS011;11713;48.506;8.966;2023-11-22T07:37:02;6.20;;;4.30;;
23088;SDS011;11713;48.506;8.966;2023-11-22T07:39:28;6.50;;;4.27;;
23088;SDS011;11713;48.506;8.966;2023-11-22T07:41:54;5.83;;;4.70;;
23088;SDS011;11713;48.506;8.966;2023-11-22T07:44:20;6.67;;;5.27;;
23088;SDS011;11713;48.506;8.966;2023-11-22T07:46:47;5.00;;;4.20;;
23088;SDS011;11713;48.506;8.966;2023-11-22T07:49:13;6.83;;;4.63;;
23088;SDS011;11713;48.506;8.966;2023-11-22T07:51:39;5.50;;;4.73;;
23088;SDS011;11713;48.506;8.966;2023-11-22T07:54:06;6.97;;;4.63;;
23088;SDS011;11713;48.506;8.966;2023-11-22T07:56:34;6.63;;;4.70;;
23088;SDS011;11713;48.506;8.966;2023-11-22T07:58:59;5.40;;;4.63;;
23088;SDS011;11713;48.506;8.966;2023-11-22T08:01:26;6.10;;;4.70;;
23088;SDS011;11713;48.506;8.966;2023-11-22T08:03:55;7.03;;;5.00;;
23088;SDS011;11713;48.506;8.966;2023-11-22T08:06:22;6.50;;;5.07;;
23088;SDS011;11713;48.506;8.966;2023-11-22T08:08:48;6.07;;;4.47;;
23088;SDS011;11713;48.506;8.966;2023-11-22T08:11:14;7.43;;;4.40;;
23088;SDS011;11713;48.506;8.966;2023-11-22T08:13:41;10.43;;;5.77;;
23088;SDS011;11713;48.506;8.966;2023-11-22T08:16:13;8.67;;;5.50;;
23088;SDS011;11713;48.506;8.966;2023-11-22T08:18:39;6.63;;;4.97;;
23088;SDS011;11713;48.506;8.966;2023-11-22T08:21:08;5.73;;;4.70;;
23088;SDS011;11713;48.506;8.966;2023-11-22T08:23:36;5.77;;;4.57;;
23088;SDS011;11713;48.506;8.966;2023-11-22T08:26:05;5.90;;;4.37;;
23088;SDS011;11713;48.506;8.966;2023-11-22T08:28:34;5.17;;;4.63;;
23088;SDS011;11713;48.506;8.966;2023-11-22T08:31:03;5.87;;;4.60;;
23088;SDS011;11713;48.506;8.966;2023-11-22T08:33:38;6.40;;;4.80;;
23088;SDS011;11713;48.506;8.966;2023-11-22T08:36:05;6.40;;;4.67;;
23088;SDS011;11713;48.506;8.966;2023-11-22T08:38:33;6.70;;;5.13;;
23088;SDS011;11713;48.506;8.966;2023-11-22T08:41:09;5.63;;;4.70;;
23088;SDS011;11713;48.506;8.966;2023-11-22T08:43:39;6.90;;;5.10;;
23088;SDS011;11713;48.506;8.966;2023-11-22T08:46:05;5.50;;;4.60;;
23088;SDS011;11713;48.506;8.966;2023-11-22T08:48:35;5.80;;;4.40;;
23088;SDS011;11713;48.506;8.966;2023-11-22T08:51:03;6.47;;;4.30;;
23088;SDS011;11713;48.506;8.966;2023-11-22T08:53:29;6.07;;;4.43;;
23088;SDS011;11713;48.506;8.966;2023-11-22T08:55:55;5.53;;;4.13;;
23088;SDS011;11713;48.506;8.966;2023-11-22T08:58:21;7.80;;;4.70;;
23088;SDS011;11713;48.506;8.966;2023-11-22T09:00:49;4.57;;;3.97;;
23088;SDS011;11713;48.506;8.966;2023-11-22T09:03:17;5.13;;;3.70;;
23088;SDS011;11713;48.506;8.966;2023-11-22T09:05:44;5.53;;;4.07;;
23088;SDS011;11713;48.506;8.966;2023-11-22T09:08:11;4.93;;;4.20;;
23088;SDS011;11713;48.506;8.966;2023-11-22T09:10:40;5.10;;;3.90;;
23088;SDS011;11713;48.506;8.966;2023-11-22T09:13:09;5.03;;;3.80;;
23088;SDS011;11713;48.506;8.966;2023-11-22T09:15:39;4.53;;;3.50;;
23088;SDS011;11713;48.506;8.966;2023-11-22T09:18:07;5.90;;;4.07;;
23088;SDS011;11713;48.506;8.966;2023-11-22T09:20:41;4.83;;;3.60;;
23088;SDS011;11713;48.506;8.966;2023-11-22T09:23:11;5.43;;;3.60;;
23088;SDS011;11713;48.506;8.966;2023-11-22T09:25:43;5.10;;;3.43;;
23088;SDS011;11713;48.506;8.966;2023-11-22T09:28:11;4.13;;;3.03;;
23088;SDS011;11713;48.506;8.966;2023-11-22T09:30:44;3.87;;;3.13;;
23088;SDS011;11713;48.506;8.966;2023-11-22T09:33:14;4.53;;;3.70;;
23088;SDS011;11713;48.506;8.966;2023-11-22T09:35:46;4.40;;;3.47;;
23088;SDS011;11713;48.506;8.966;2023-11-22T09:38:15;4.63;;;3.23;;
23088;SDS011;11713;48.506;8.966;2023-11-22T09:40:46;4.30;;;3.67;;
23088;SDS011;11713;48.506;8.966;2023-11-22T09:43:18;4.07;;;3.30;;
23088;SDS011;11713;48.506;8.966;2023-11-22T09:45:49;4.67;;;3.97;;
23088;SDS011;11713;48.506;8.966;2023-11-22T09:48:21;5.90;;;3.63;;
23088;SDS011;11713;48.506;8.966;2023-11-22T09:51:15;4.30;;;3.67;;
23088;SDS011;11713;48.506;8.966;2023-11-22T09:53:59;4.10;;;3.57;;
23088;SDS011;11713;48.506;8.966;2023-11-22T09:56:30;5.07;;;4.17;;
23088;SDS011;11713;48.506;8.966;2023-11-22T09:59:03;4.03;;;3.63;;
23088;SDS011;11713;48.506;8.966;2023-11-22T10:01:31;5.57;;;3.73;;
23088;SDS011;11713;48.506;8.966;2023-11-22T10:04:02;4.53;;;3.83;;
23088;SDS011;11713;48.506;8.966;2023-11-22T10:06:31;6.73;;;3.80;;
23088;SDS011;11713;48.506;8.966;2023-11-22T10:09:06;6.77;;;4.83;;
23088;SDS011;11713;48.506;8.966;2023-11-22T10:11:36;6.07;;;4.20;;
23088;SDS011;11713;48.506;8.966;2023-11-22T10:14:05;6.07;;;4.60;;
23088;SDS011;11713;48.506;8.966;2023-11-22T10:16:35;5.60;;;4.23;;
23088;SDS011;11713;48.506;8.966;2023-11-22T10:19:05;6.00;;;4.50;;
23088;SDS011;11713;48.506;8.966;2023-11-22T10:21:34;5.20;;;4.60;;
23088;SDS011;11713;48.506;8.966;2023-11-22T10:24:09;6.60;;;4.50;;
23088;SDS011;11713;48.506;8.966;2023-11-22T10:26:38;6.43;;;4.80;;
23088;SDS011;11713;48.506;8.966;2023-11-22T10:29:08;7.73;;;4.70;;
23088;SDS011;11713;48.506;8.966;2023-11-22T10:31:41;5.60;;;4.77;;
23088;SDS011;11713;48.506;8.966;2023-11-22T10:34:19;5.97;;;4.40;;
23088;SDS011;11713;48.506;8.966;2023-11-22T10:36:52;6.37;;;4.70;;
23088;SDS011;11713;48.506;8.966;2023-11-22T10:39:24;7.13;;;4.63;;
23088;SDS011;11713;48.506;8.966;2023-11-22T10:41:53;6.87;;;4.70;;
23088;SDS011;11713;48.506;8.966;2023-11-22T10:44:21;5.70;;;4.17;;
23088;SDS011;11713;48.506;8.966;2023-11-22T10:47:14;6.00;;;4.67;;
23088;SDS011;11713;48.506;8.966;2023-11-22T10:49:44;9.00;;;4.90;;
23088;SDS011;11713;48.506;8.966;2023-11-22T10:52:14;7.93;;;5.13;;
23088;SDS011;11713;48.506;8.966;2023-11-22T10:54:44;6.03;;;4.37;;
23088;SDS011;11713;48.506;8.966;2023-11-22T10:57:27;7.10;;;4.30;;
23088;SDS011;11713;48.506;8.966;2023-11-22T11:00:00;7.27;;;5.00;;
23088;SDS011;11713;48.506;8.966;2023-11-22T11:02:44;6.20;;;4.67;;
23088;SDS011;11713;48.506;8.966;2023-11-22T11:05:15;5.33;;;4.50;;
23088;SDS011;11713;48.506;8.966;2023-11-22T11:13:32;6.13;;;4.40;;
23088;SDS011;11713;48.506;8.966;2023-11-22T11:16:15;7.10;;;5.20;;
23088;SDS011;11713;48.506;8.966;2023-11-22T11:18:57;6.57;;;5.07;;
23088;SDS011;11713;48.506;8.966;2023-11-22T11:22:00;5.60;;;4.37;;
23088;SDS011;11713;48.506;8.966;2023-11-22T11:24:48;6.37;;;4.77;;
23088;SDS011;11713;48.506;8.966;2023-11-22T11:28:26;6.77;;;4.60;;
23088;SDS011;11713;48.506;8.966;2023-11-22T11:31:48;6.00;;;4.90;;
23088;SDS011;11713;48.506;8.966;2023-11-22T11:34:48;8.50;;;5.03;;
23088;SDS011;11713;48.506;8.966;2023-11-22T11:38:34;10.17;;;4.77;;
23088;SDS011;11713;48.506;8.966;2023-11-22T11:41:42;5.60;;;4.40;;
23088;SDS011;11713;48.506;8.966;2023-11-22T11:45:04;6.77;;;5.20;;
23088;SDS011;11713;48.506;8.966;2023-11-22T11:55:59;7.57;;;4.73;;
23088;SDS011;11713;48.506;8.966;2023-11-22T11:58:31;6.33;;;4.90;;
23088;SDS011;11713;48.506;8.966;2023-11-22T12:01:00;6.53;;;4.83;;
23088;SDS011;11713;48.506;8.966;2023-11-22T12:03:28;6.27;;;4.77;;
23088;SDS011;11713;48.506;8.966;2023-11-22T12:05:55;6.70;;;4.87;;
23088;SDS011;11713;48.506;8.966;2023-11-22T12:08:24;6.43;;;5.03;;
23088;SDS011;11713;48.506;8.966;2023-11-22T12:10:50;7.43;;;4.87;;
23088;SDS011;11713;48.506;8.966;2023-11-22T12:13:22;8.43;;;5.13;;
23088;SDS011;11713;48.506;8.966;2023-11-22T12:15:54;7.63;;;5.40;;
23088;SDS011;11713;48.506;8.966;2023-11-22T12:18:20;7.20;;;5.63;;
23088;SDS011;11713;48.506;8.966;2023-11-22T12:20:57;9.10;;;5.60;;
23088;SDS011;11713;48.506;8.966;2023-11-22T12:23:25;7.97;;;5.40;;
23088;SDS011;11713;48.506;8.966;2023-11-22T12:25:58;8.83;;;5.47;;
23088;SDS011;11713;48.506;8.966;2023-11-22T12:28:27;7.80;;;5.00;;
23088;SDS011;11713;48.506;8.966;2023-11-22T12:30:54;10.37;;;6.47;;
23088;SDS011;11713;48.506;8.966;2023-11-22T12:33:20;7.37;;;5.73;;
23088;SDS011;11713;48.506;8.966;2023-11-22T12:35:47;7.70;;;5.57;;
23088;SDS011;11713;48.506;8.966;2023-11-22T12:38:14;7.97;;;5.93;;
23088;SDS011;11713;48.506;8.966;2023-11-22T12:40:45;7.87;;;6.07;;
23088;SDS011;11713;48.506;8.966;2023-11-22T12:43:13;12.17;;;5.97;;
23088;SDS011;11713;48.506;8.966;2023-11-22T12:45:43;8.77;;;6.20;;
23088;SDS011;11713;48.506;8.966;2023-11-22T12:48:33;8.20;;;6.23;;
23088;SDS011;11713;48.506;8.966;2023-11-22T12:51:01;7.77;;;5.87;;
23088;SDS011;11713;48.506;8.966;2023-11-22T12:53:46;8.80;;;6.50;;
23088;SDS011;11713;48.506;8.966;2023-11-22T12:56:14;9.00;;;6.27;;
23088;SDS011;11713;48.506;8.966;2023-11-22T12:58:42;7.73;;;5.90;;
23088;SDS011;11713;48.506;8.966;2023-11-22T13:01:09;7.80;;;5.93;;
23088;SDS011;11713;48.506;8.966;2023-11-22T13:03:37;9.03;;;6.07;;
23088;SDS011;11713;48.506;8.966;2023-11-22T13:06:05;7.87;;;6.13;;
23088;SDS011;11713;48.506;8.966;2023-11-22T13:08:34;9.93;;;6.60;;
23088;SDS011;11713;48.506;8.966;2023-11-22T13:11:01;8.90;;;5.87;;
23088;SDS011;11713;48.506;8.966;2023-11-22T13:13:27;8.13;;;5.67;;
23088;SDS011;11713;48.506;8.966;2023-11-22T13:15:53;7.30;;;5.80;;
23088;SDS011;11713;48.506;8.966;2023-11-22T13:18:19;12.10;;;6.47;;
23088;SDS011;11713;48.506;8.966;2023-11-22T13:20:46;8.43;;;6.07;;
23088;SDS011;11713;48.506;8.966;2023-11-22T13:23:12;8.47;;;5.67;;
23088;SDS011;11713;48.506;8.966;2023-11-22T13:25:39;8.50;;;6.13;;
23088;SDS011;11713;48.506;8.966;2023-11-22T13:28:06;8.23;;;5.73;;
23088;SDS011;11713;48.506;8.966;2023-11-22T13:30:34;8.20;;;6.37;;
23088;SDS011;11713;48.506;8.966;2023-11-22T13:33:00;10.47;;;6.20;;
23088;SDS011;11713;48.506;8.966;2023-11-22T13:35:27;7.77;;;5.80;;
23088;SDS011;11713;48.506;8.966;2023-11-22T13:37:57;7.07;;;5.67;;
23088;SDS011;11713;48.506;8.966;2023-11-22T13:40:24;8.83;;;5.67;;
23088;SDS011;11713;48.506;8.966;2023-11-22T13:42:52;8.67;;;6.43;;
23088;SDS011;11713;48.506;8.966;2023-11-22T13:45:18;9.17;;;6.33;;
23088;SDS011;11713;48.506;8.966;2023-11-22T13:47:45;10.13;;;6.10;;
23088;SDS011;11713;48.506;8.966;2023-11-22T13:50:23;9.17;;;6.13;;
23088;SDS011;11713;48.506;8.966;2023-11-22T13:52:52;8.00;;;5.57;;
23088;SDS011;11713;48.506;8.966;2023-11-22T13:55:19;8.07;;;5.70;;
23088;SDS011;11713;48.506;8.966;2023-11-22T13:57:49;7.43;;;5.80;;
23088;SDS011;11713;48.506;8.966;2023-11-22T14:00:19;11.23;;;6.63;;
23088;SDS011;11713;48.506;8.966;2023-11-22T14:02:51;7.67;;;6.23;;
23088;SDS011;11713;48.506;8.966;2023-11-22T14:05:21;7.90;;;6.00;;
23088;SDS011;11713;48.506;8.966;2023-11-22T14:07:47;10.70;;;5.93;;
23088;SDS011;11713;48.506;8.966;2023-11-22T14:10:17;8.60;;;6.30;;
23088;SDS011;11713;48.506;8.966;2023-11-22T14:12:44;8.07;;;5.70;;
23088;SDS011;11713;48.506;8.966;2023-11-22T14:15:11;9.63;;;5.80;;
23088;SDS011;11713;48.506;8.966;2023-11-22T14:17:37;8.03;;;5.90;;
23088;SDS011;11713;48.506;8.966;2023-11-22T14:22:39;12.40;;;5.80;;
23088;SDS011;11713;48.506;8.966;2023-11-22T14:25:08;6.30;;;5.17;;
23088;SDS011;11713;48.506;8.966;2023-11-22T14:27:39;8.40;;;5.73;;
23088;SDS011;11713;48.506;8.966;2023-11-22T14:30:10;9.97;;;5.77;;
23088;SDS011;11713;48.506;8.966;2023-11-22T14:32:39;8.33;;;6.10;;
23088;SDS011;11713;48.506;8.966;2023-11-22T14:35:05;7.20;;;5.23;;
23088;SDS011;11713;48.506;8.966;2023-11-22T14:37:35;7.50;;;5.47;;
23088;SDS011;11713;48.506;8.966;2023-11-22T14:40:05;9.30;;;6.00;;
23088;SDS011;11713;48.506;8.966;2023-11-22T14:42:41;9.27;;;5.50;;
23088;SDS011;11713;48.506;8.966;2023-11-22T14:45:11;8.63;;;5.93;;
23088;SDS011;11713;48.506;8.966;2023-11-22T14:47:38;7.67;;;5.73;;
23088;SDS011;11713;48.506;8.966;2023-11-22T14:50:05;9.57;;;5.80;;
23088;SDS011;11713;48.506;8.966;2023-11-22T14:52:33;9.63;;;6.17;;
23088;SDS011;11713;48.506;8.966;2023-11-22T14:54:59;11.23;;;5.93;;
23088;SDS011;11713;48.506;8.966;2023-11-22T14:57:26;7.50;;;5.83;;
23088;SDS011;11713;48.506;8.966;2023-11-22T14:59:52;8.47;;;6.13;;
23088;SDS011;11713;48.506;8.966;2023-11-22T15:02:18;7.23;;;5.77;;
23088;SDS011;11713;48.506;8.966;2023-11-22T15:04:44;7.97;;;5.57;;
23088;SDS011;11713;48.506;8.966;2023-11-22T15:07:10;5.93;;;5.07;;
23088;SDS011;11713;48.506;8.966;2023-11-22T15:09:37;6.60;;;5.23;;
23088;SDS011;11713;48.506;8.966;2023-11-22T15:12:03;5.60;;;4.97;;
23088;SDS011;11713;48.506;8.966;2023-11-22T15:14:33;7.07;;;5.13;;